sensor_id;sensor_type;location;lat;lon;timestamp;pressure;altitude;pressure_sealevel;temperature;humidity
48774;BME280;34576;0.000;0.000;2023-05-21T00:02:44;96191.31;;;17.20;70.95
48774;BME280;34576;0.000;0.000;2023-05-21T00:09:44;96188.66;;;17.20;71.59
48774;BME280;34576;0.000;0.000;2023-05-21T00:16:45;96182.06;;;17.17;71.28
48774;BME280;34576;0.000;0.000;2023-05-21T00:23:46;96185.81;;;17.16;71.54
48774;BME280;34576;0.000;0.000;2023-05-21T00:30:47;96179.41;;;17.17;71.35
48774;BME280;34576;0.000;0.000;2023-05-21T00:37:47;96180.47;;;17.16;72.44
48774;BME280;34576;0.000;0.000;2023-05-21T00:44:47;96177.00;;;17.16;71.74
48774;BME280;34576;0.000;0.000;2023-05-21T00:51:48;96185.81;;;17.16;71.44
48774;BME280;34576;0.000;0.000;2023-05-21T00:58:49;96182.84;;;17.18;71.18
48774;BME280;34576;0.000;0.000;2023-05-21T01:05:51;96184.75;;;17.17;71.36
48774;BME280;34576;0.000;0.000;2023-05-21T01:12:52;96183.94;;;17.17;71.36
48774;BME280;34576;0.000;0.000;2023-05-21T01:19:54;96171.44;;;17.17;71.09
48774;BME280;34576;0.000;0.000;2023-05-21T01:26:55;96173.56;;;17.15;71.69
48774;BME280;34576;0.000;0.000;2023-05-21T01:33:57;96178.59;;;17.17;71.38
48774;BME280;34576;0.000;0.000;2023-05-21T01:41:01;96169.84;;;17.16;71.66
48774;BME280;34576;0.000;0.000;2023-05-21T01:48:05;96171.69;;;17.16;71.15
48774;BME280;34576;0.000;0.000;2023-05-21T01:55:06;96167.69;;;17.18;71.27
48774;BME280;34576;0.000;0.000;2023-05-21T02:02:06;96162.38;;;17.18;70.84
48774;BME280;34576;0.000;0.000;2023-05-21T02:09:06;96158.41;;;17.16;71.36
48774;BME280;34576;0.000;0.000;2023-05-21T02:16:08;96167.69;;;17.18;71.36
48774;BME280;34576;0.000;0.000;2023-05-21T02:23:13;96155.50;;;17.17;71.15
48774;BME280;34576;0.000;0.000;2023-05-21T02:30:14;96148.59;;;17.16;71.44
48774;BME280;34576;0.000;0.000;2023-05-21T02:37:16;96141.41;;;17.17;71.21
48774;BME280;34576;0.000;0.000;2023-05-21T02:44:16;96145.94;;;17.16;70.94
48774;BME280;34576;0.000;0.000;2023-05-21T02:51:18;96144.88;;;17.17;71.53
48774;BME280;34576;0.000;0.000;2023-05-21T02:58:19;96145.94;;;17.16;71.26
48774;BME280;34576;0.000;0.000;2023-05-21T03:05:22;96141.69;;;17.15;70.91
48774;BME280;34576;0.000;0.000;2023-05-21T03:12:25;96147.00;;;17.15;70.88
48774;BME280;34576;0.000;0.000;2023-05-21T03:19:25;96147.28;;;17.14;71.09
48774;BME280;34576;0.000;0.000;2023-05-21T03:26:25;96156.84;;;17.15;71.49
48774;BME280;34576;0.000;0.000;2023-05-21T03:33:30;96159.78;;;17.13;71.04
48774;BME280;34576;0.000;0.000;2023-05-21T03:40:31;96163.50;;;17.12;70.99
48774;BME280;34576;0.000;0.000;2023-05-21T03:47:31;96162.72;;;17.12;71.05
48774;BME280;34576;0.000;0.000;2023-05-21T03:54:33;96173.56;;;17.15;70.73
48774;BME280;34576;0.000;0.000;2023-05-21T04:01:38;96174.16;;;17.12;70.85
48774;BME280;34576;0.000;0.000;2023-05-21T04:08:40;96185.53;;;17.42;72.02
48774;BME280;34576;0.000;0.000;2023-05-21T04:15:40;96189.22;;;17.46;72.80
48774;BME280;34576;0.000;0.000;2023-05-21T04:22:42;96203.28;;;17.47;73.60
48774;BME280;34576;0.000;0.000;2023-05-21T04:29:43;96200.88;;;17.50;74.27
48774;BME280;34576;0.000;0.000;2023-05-21T04:36:44;96210.13;;;17.53;74.99
48774;BME280;34576;0.000;0.000;2023-05-21T04:43:46;96218.63;;;17.55;75.44
48774;BME280;34576;0.000;0.000;2023-05-21T04:50:47;96223.66;;;17.56;75.52
48774;BME280;34576;0.000;0.000;2023-05-21T04:57:48;96221.69;;;17.67;76.32
48774;BME280;34576;0.000;0.000;2023-05-21T05:04:49;96227.78;;;17.68;72.54
48774;BME280;34576;0.000;0.000;2023-05-21T05:11:50;96224.59;;;17.66;77.19
48774;BME280;34576;0.000;0.000;2023-05-21T05:18:51;96224.06;;;17.69;73.16
48774;BME280;34576;0.000;0.000;2023-05-21T05:25:52;96228.84;;;17.67;77.31
48774;BME280;34576;0.000;0.000;2023-05-21T05:32:52;96225.41;;;17.66;77.14
48774;BME280;34576;0.000;0.000;2023-05-21T05:39:52;96219.53;;;17.69;76.86
48774;BME280;34576;0.000;0.000;2023-05-21T05:46:53;96220.31;;;17.70;76.88
48774;BME280;34576;0.000;0.000;2023-05-21T05:53:53;96214.19;;;17.69;77.04
48774;BME280;34576;0.000;0.000;2023-05-21T06:00:54;96209.66;;;17.70;76.87
48774;BME280;34576;0.000;0.000;2023-05-21T06:07:54;96200.84;;;17.26;73.08
48774;BME280;34576;0.000;0.000;2023-05-21T06:14:55;96213.41;;;17.69;71.87
48774;BME280;34576;0.000;0.000;2023-05-21T06:21:55;96203.78;;;17.73;71.42
48774;BME280;34576;0.000;0.000;2023-05-21T06:28:59;96205.94;;;17.47;69.48
48774;BME280;34576;0.000;0.000;2023-05-21T06:36:00;96204.03;;;17.52;69.13
48774;BME280;34576;0.000;0.000;2023-05-21T06:43:00;96202.50;;;17.46;69.82
48774;BME280;34576;0.000;0.000;2023-05-21T06:50:10;96208.31;;;17.48;70.18
48774;BME280;34576;0.000;0.000;2023-05-21T06:57:10;96205.25;;;17.12;69.84
48774;BME280;34576;0.000;0.000;2023-05-21T07:04:11;96204.97;;;17.13;70.12
48774;BME280;34576;0.000;0.000;2023-05-21T07:11:11;96209.84;;;17.30;69.67
48774;BME280;34576;0.000;0.000;2023-05-21T07:18:12;96214.16;;;17.26;70.44
48774;BME280;34576;0.000;0.000;2023-05-21T07:25:13;96218.09;;;17.29;69.85
48774;BME280;34576;0.000;0.000;2023-05-21T07:32:13;96208.25;;;17.29;70.06
48774;BME280;34576;0.000;0.000;2023-05-21T07:39:13;96203.72;;;17.30;69.60
48774;BME280;34576;0.000;0.000;2023-05-21T07:46:16;96206.34;;;17.35;69.74
48774;BME280;34576;0.000;0.000;2023-05-21T07:53:17;96204.25;;;17.32;69.81
48774;BME280;34576;0.000;0.000;2023-05-21T08:00:18;96195.47;;;17.31;69.97
48774;BME280;34576;0.000;0.000;2023-05-21T08:07:25;96203.91;;;17.38;69.76
48774;BME280;34576;0.000;0.000;2023-05-21T08:14:26;96188.50;;;17.35;68.88
48774;BME280;34576;0.000;0.000;2023-05-21T08:21:27;96181.97;;;17.52;68.83
48774;BME280;34576;0.000;0.000;2023-05-21T08:28:29;96185.97;;;17.73;68.46
48774;BME280;34576;0.000;0.000;2023-05-21T08:35:30;96195.09;;;17.67;68.82
48774;BME280;34576;0.000;0.000;2023-05-21T08:42:44;96185.81;;;17.65;68.69
48774;BME280;34576;0.000;0.000;2023-05-21T08:49:49;96185.22;;;17.68;68.04
48774;BME280;34576;0.000;0.000;2023-05-21T08:56:51;96180.41;;;17.70;68.44
48774;BME280;34576;0.000;0.000;2023-05-21T09:03:55;96188.09;;;17.71;68.57
48774;BME280;34576;0.000;0.000;2023-05-21T09:11:00;96189.41;;;17.74;68.78
48774;BME280;34576;0.000;0.000;2023-05-21T09:18:05;96187.53;;;17.74;68.91
48774;BME280;34576;0.000;0.000;2023-05-21T09:25:24;96184.59;;;17.76;69.08
48774;BME280;34576;0.000;0.000;2023-05-21T09:32:27;96186.97;;;17.77;68.92
48774;BME280;34576;0.000;0.000;2023-05-21T09:39:28;96186.69;;;17.79;69.42
48774;BME280;34576;0.000;0.000;2023-05-21T09:46:37;96186.88;;;17.83;69.38
48774;BME280;34576;0.000;0.000;2023-05-21T09:53:43;96184.75;;;17.85;69.27
48774;BME280;34576;0.000;0.000;2023-05-21T10:00:43;96187.13;;;17.86;69.25
48774;BME280;34576;0.000;0.000;2023-05-21T10:07:52;96179.13;;;17.86;69.42
48774;BME280;34576;0.000;0.000;2023-05-21T10:15:03;96173.22;;;17.94;69.80
48774;BME280;34576;0.000;0.000;2023-05-21T10:22:03;96170.03;;;17.92;69.62
48774;BME280;34576;0.000;0.000;2023-05-21T10:29:04;96171.16;;;17.86;68.12
48774;BME280;34576;0.000;0.000;2023-05-21T10:36:04;96164.94;;;17.96;69.12
48774;BME280;34576;0.000;0.000;2023-05-21T10:43:49;96172.78;;;18.06;70.66
48774;BME280;34576;0.000;0.000;2023-05-21T11:05:00;96156.78;;;17.87;70.59
48774;BME280;34576;0.000;0.000;2023-05-21T11:12:03;96157.38;;;17.84;70.89
48774;BME280;34576;0.000;0.000;2023-05-21T11:19:03;96159.75;;;17.86;71.31
48774;BME280;34576;0.000;0.000;2023-05-21T11:26:05;96154.72;;;17.84;71.35
48774;BME280;34576;0.000;0.000;2023-05-21T11:40:15;96152.59;;;17.81;71.06
48774;BME280;34576;0.000;0.000;2023-05-21T11:47:18;96148.28;;;17.85;70.83
48774;BME280;34576;0.000;0.000;2023-05-21T11:54:19;96148.28;;;17.85;71.14
48774;BME280;34576;0.000;0.000;2023-05-21T12:01:20;96153.59;;;17.85;71.09
48774;BME280;34576;0.000;0.000;2023-05-21T12:08:24;96147.50;;;17.85;71.06
48774;BME280;34576;0.000;0.000;2023-05-21T12:15:25;96147.22;;;17.86;71.03
48774;BME280;34576;0.000;0.000;2023-05-21T12:22:25;96155.19;;;17.86;71.15
48774;BME280;34576;0.000;0.000;2023-05-21T12:29:29;96177.56;;;17.85;70.98
48774;BME280;34576;0.000;0.000;2023-05-21T12:36:30;96183.97;;;17.84;71.04
48774;BME280;34576;0.000;0.000;2023-05-21T12:43:33;96187.69;;;17.83;71.04
48774;BME280;34576;0.000;0.000;2023-05-21T12:50:37;96205.25;;;17.84;71.17
48774;BME280;34576;0.000;0.000;2023-05-21T12:57:37;96202.84;;;17.83;70.95
48774;BME280;34576;0.000;0.000;2023-05-21T13:04:37;96214.59;;;17.82;71.00
48774;BME280;34576;0.000;0.000;2023-05-21T13:11:38;96200.47;;;17.81;70.94
48774;BME280;34576;0.000;0.000;2023-05-21T13:18:38;96203.16;;;17.81;70.77
48774;BME280;34576;0.000;0.000;2023-05-21T13:25:38;96201.28;;;17.82;70.95
48774;BME280;34576;0.000;0.000;2023-05-21T13:32:40;96200.47;;;17.81;70.83
48774;BME280;34576;0.000;0.000;2023-05-21T13:39:42;96198.34;;;17.83;70.90
48774;BME280;34576;0.000;0.000;2023-05-21T13:46:42;96197.81;;;17.81;70.64
48774;BME280;34576;0.000;0.000;2023-05-21T13:53:43;96200.19;;;17.83;71.04
48774;BME280;34576;0.000;0.000;2023-05-21T14:00:45;96195.97;;;17.82;70.87
48774;BME280;34576;0.000;0.000;2023-05-21T14:07:46;96185.03;;;17.83;70.77
48774;BME280;34576;0.000;0.000;2023-05-21T14:14:47;96161.88;;;17.84;70.92
48774;BME280;34576;0.000;0.000;2023-05-21T14:21:51;96135.28;;;17.84;70.92
48774;BME280;34576;0.000;0.000;2023-05-21T14:28:52;96152.81;;;17.85;70.90
48774;BME280;34576;0.000;0.000;2023-05-21T14:35:53;96158.16;;;17.85;70.97
48774;BME280;34576;0.000;0.000;2023-05-21T14:42:54;96160.53;;;17.86;70.76
48774;BME280;34576;0.000;0.000;2023-05-21T14:49:55;96168.00;;;17.84;70.78
48774;BME280;34576;0.000;0.000;2023-05-21T14:56:55;96170.94;;;17.83;70.84
48774;BME280;34576;0.000;0.000;2023-05-21T15:03:55;96182.38;;;17.83;70.94
48774;BME280;34576;0.000;0.000;2023-05-21T15:10:57;96180.22;;;17.85;71.31
48774;BME280;34576;0.000;0.000;2023-05-21T15:17:57;96196.19;;;17.85;71.70
48774;BME280;34576;0.000;0.000;2023-05-21T15:24:58;96222.78;;;17.85;71.64
48774;BME280;34576;0.000;0.000;2023-05-21T15:31:58;96208.41;;;17.86;71.64
48774;BME280;34576;0.000;0.000;2023-05-21T15:39:00;96220.66;;;17.87;71.78
48774;BME280;34576;0.000;0.000;2023-05-21T15:46:02;96244.06;;;17.85;71.73
48774;BME280;34576;0.000;0.000;2023-05-21T15:53:03;96254.72;;;17.85;71.95
48774;BME280;34576;0.000;0.000;2023-05-21T16:00:04;96286.63;;;17.85;71.72
48774;BME280;34576;0.000;0.000;2023-05-21T16:07:08;96296.50;;;17.85;71.77
48774;BME280;34576;0.000;0.000;2023-05-21T16:14:09;96291.19;;;17.85;71.79
48774;BME280;34576;0.000;0.000;2023-05-21T16:21:09;96296.50;;;17.85;71.69
48774;BME280;34576;0.000;0.000;2023-05-21T16:28:13;96287.72;;;17.84;71.62
48774;BME280;34576;0.000;0.000;2023-05-21T16:35:19;96291.97;;;17.85;72.18
48774;BME280;34576;0.000;0.000;2023-05-21T16:42:22;96280.53;;;17.85;71.80
48774;BME280;34576;0.000;0.000;2023-05-21T16:49:23;96276.00;;;17.85;72.33
48774;BME280;34576;0.000;0.000;2023-05-21T16:56:23;96277.59;;;17.86;73.07
48774;BME280;34576;0.000;0.000;2023-05-21T17:03:23;96279.19;;;17.87;73.34
48774;BME280;34576;0.000;0.000;2023-05-21T17:10:24;96283.69;;;17.87;73.50
48774;BME280;34576;0.000;0.000;2023-05-21T17:17:24;96278.09;;;17.88;73.60
48774;BME280;34576;0.000;0.000;2023-05-21T17:24:24;96261.06;;;17.89;73.48
48774;BME280;34576;0.000;0.000;2023-05-21T17:31:25;96259.47;;;17.88;73.05
48774;BME280;34576;0.000;0.000;2023-05-21T17:38:25;96261.06;;;17.89;73.51
48774;BME280;34576;0.000;0.000;2023-05-21T17:45:27;96259.75;;;17.87;73.40
48774;BME280;34576;0.000;0.000;2023-05-21T17:52:27;96261.84;;;17.90;73.07
48774;BME280;34576;0.000;0.000;2023-05-21T17:59:27;96267.72;;;17.92;72.39
48774;BME280;34576;0.000;0.000;2023-05-21T18:06:28;96263.72;;;17.89;73.03
48774;BME280;34576;0.000;0.000;2023-05-21T18:13:28;96254.13;;;17.88;73.50
48774;BME280;34576;0.000;0.000;2023-05-21T18:20:29;96258.13;;;17.91;76.21
48774;BME280;34576;0.000;0.000;2023-05-21T18:27:29;96249.09;;;17.87;75.53
48774;BME280;34576;0.000;0.000;2023-05-21T18:34:30;96243.50;;;17.88;76.95
48774;BME280;34576;0.000;0.000;2023-05-21T18:41:30;96248.53;;;17.90;75.17
48774;BME280;34576;0.000;0.000;2023-05-21T18:48:30;96251.75;;;17.87;75.57
48774;BME280;34576;0.000;0.000;2023-05-21T18:55:33;96267.72;;;17.87;76.33
48774;BME280;34576;0.000;0.000;2023-05-21T19:02:33;96280.25;;;17.86;76.52
48774;BME280;34576;0.000;0.000;2023-05-21T19:09:33;96276.00;;;17.85;76.74
48774;BME280;34576;0.000;0.000;2023-05-21T19:16:34;96279.75;;;17.84;76.27
48774;BME280;34576;0.000;0.000;2023-05-21T19:23:35;96282.91;;;17.86;76.52
48774;BME280;34576;0.000;0.000;2023-05-21T19:30:35;96285.06;;;17.84;76.40
48774;BME280;34576;0.000;0.000;2023-05-21T19:37:35;96298.63;;;17.83;76.13
48774;BME280;34576;0.000;0.000;2023-05-21T19:44:39;96303.69;;;17.84;76.04
48774;BME280;34576;0.000;0.000;2023-05-21T19:51:39;96303.16;;;17.82;76.17
48774;BME280;34576;0.000;0.000;2023-05-21T19:58:40;96313.81;;;17.82;76.08
48774;BME280;34576;0.000;0.000;2023-05-21T20:05:40;96329.78;;;17.82;76.07
48774;BME280;34576;0.000;0.000;2023-05-21T20:12:40;96327.13;;;17.82;75.93
48774;BME280;34576;0.000;0.000;2023-05-21T20:19:41;96342.31;;;17.82;76.01
48774;BME280;34576;0.000;0.000;2023-05-21T20:26:43;96334.78;;;17.89;74.21
48774;BME280;34576;0.000;0.000;2023-05-21T20:33:43;96332.97;;;17.84;75.35
48774;BME280;34576;0.000;0.000;2023-05-21T20:40:44;96330.56;;;17.83;75.16
48774;BME280;34576;0.000;0.000;2023-05-21T20:47:44;96324.91;;;17.89;74.59
48774;BME280;34576;0.000;0.000;2023-05-21T20:54:46;96331.38;;;17.83;75.00
48774;BME280;34576;0.000;0.000;2023-05-21T21:01:47;96333.50;;;17.81;75.25
48774;BME280;34576;0.000;0.000;2023-05-21T21:08:49;96341.44;;;17.91;74.11
48774;BME280;34576;0.000;0.000;2023-05-21T21:15:49;96338.78;;;17.91;74.44
48774;BME280;34576;0.000;0.000;2023-05-21T21:22:50;96337.97;;;17.91;74.34
48774;BME280;34576;0.000;0.000;2023-05-21T21:29:50;96339.56;;;17.92;74.21
48774;BME280;34576;0.000;0.000;2023-05-21T21:36:50;96337.97;;;17.91;74.54
48774;BME280;34576;0.000;0.000;2023-05-21T21:43:50;96338.78;;;17.91;74.65
48774;BME280;34576;0.000;0.000;2023-05-21T21:50:51;96342.22;;;17.92;74.65
48774;BME280;34576;0.000;0.000;2023-05-21T21:57:51;96337.19;;;17.90;74.67
48774;BME280;34576;0.000;0.000;2023-05-21T22:04:51;96334.53;;;17.90;74.90
48774;BME280;34576;0.000;0.000;2023-05-21T22:11:52;96337.19;;;17.90;75.12
48774;BME280;34576;0.000;0.000;2023-05-21T22:18:52;96339.84;;;17.90;75.02
48774;BME280;34576;0.000;0.000;2023-05-21T22:25:53;96339.56;;;17.92;74.94
48774;BME280;34576;0.000;0.000;2023-05-21T22:32:53;96344.09;;;17.91;74.98
48774;BME280;34576;0.000;0.000;2023-05-21T22:39:55;96350.97;;;17.92;74.97
48774;BME280;34576;0.000;0.000;2023-05-21T22:46:56;96347.25;;;17.93;74.89
48774;BME280;34576;0.000;0.000;2023-05-21T22:53:59;96347.50;;;17.97;74.76
48774;BME280;34576;0.000;0.000;2023-05-21T23:01:00;96348.84;;;17.94;74.78
48774;BME280;34576;0.000;0.000;2023-05-21T23:08:00;96354.47;;;17.93;75.16
48774;BME280;34576;0.000;0.000;2023-05-21T23:15:02;96349.91;;;17.93;75.12
48774;BME280;34576;0.000;0.000;2023-05-21T23:22:02;96351.78;;;17.93;75.22
48774;BME280;34576;0.000;0.000;2023-05-21T23:29:03;96362.44;;;17.93;75.28
48774;BME280;34576;0.000;0.000;2023-05-21T23:36:03;96360.00;;;17.97;74.96
48774;BME280;34576;0.000;0.000;2023-05-21T23:43:03;96371.97;;;17.94;74.78
48774;BME280;34576;0.000;0.000;2023-05-21T23:50:04;96370.13;;;17.94;75.14
48774;BME280;34576;0.000;0.000;2023-05-21T23:57:05;96371.19;;;17.93;75.12
